createdAt,value
2023-04-26T00:02:36.372Z,6.53
2023-04-26T00:07:43.913Z,6.53
2023-04-26T00:12:47.382Z,6.50
2023-04-26T00:17:51.944Z,6.48
2023-04-26T00:22:55.897Z,6.45
2023-04-26T00:27:59.886Z,6.38
2023-04-26T00:33:04.511Z,6.34
2023-04-26T00:38:07.968Z,6.31
2023-04-26T00:43:11.887Z,6.27
2023-04-26T00:48:19.323Z,6.19
2023-04-26T00:53:23.586Z,6.07
2023-04-26T00:58:27.230Z,6.01
2023-04-26T01:03:31.570Z,5.99
2023-04-26T01:08:35.973Z,5.99
2023-04-26T01:13:40.092Z,6.01
2023-04-26T01:18:43.889Z,6.04
2023-04-26T01:23:47.211Z,6.05
2023-04-26T01:28:51.015Z,5.99
2023-04-26T01:33:54.652Z,5.87
2023-04-26T01:38:58.091Z,5.78
2023-04-26T01:44:01.880Z,5.75
2023-04-26T01:49:05.518Z,5.77
2023-04-26T01:54:10.034Z,5.77
2023-04-26T01:59:13.257Z,5.80
2023-04-26T02:04:17.600Z,5.80
2023-04-26T02:09:20.726Z,5.83
2023-04-26T02:14:24.035Z,5.85
2023-04-26T02:19:27.350Z,5.90
2023-04-26T02:24:33.079Z,5.91
2023-04-26T02:29:44.163Z,5.90
2023-04-26T02:34:48.252Z,5.88
2023-04-26T02:39:52.348Z,5.79
2023-04-26T02:44:55.701Z,5.65
2023-04-26T02:49:59.163Z,5.50
2023-04-26T02:55:05.494Z,5.36
2023-04-26T03:00:09.537Z,5.25
2023-04-26T03:05:13.767Z,5.14
2023-04-26T03:10:17.032Z,5.04
2023-04-26T03:15:20.391Z,4.93
2023-04-26T03:20:24.501Z,4.81
2023-04-26T03:25:27.895Z,4.70
2023-04-26T03:30:31.285Z,4.63
2023-04-26T03:35:34.639Z,4.53
2023-04-26T03:40:38.032Z,4.47
2023-04-26T03:45:41.489Z,4.44
2023-04-26T03:50:46.285Z,4.40
2023-04-26T03:55:50.517Z,4.36
2023-04-26T04:00:56.902Z,4.35
2023-04-26T04:06:04.050Z,4.36
2023-04-26T04:11:17.046Z,4.42
2023-04-26T04:16:20.615Z,4.46
2023-04-26T04:21:24.472Z,4.51
2023-04-26T04:26:30.636Z,4.56
2023-04-26T04:31:34.179Z,4.67
2023-04-26T04:36:39.208Z,4.78
2023-04-26T04:41:49.226Z,4.87
2023-04-26T04:46:53.000Z,5.01
2023-04-26T04:51:56.527Z,5.07
2023-04-26T04:56:59.941Z,5.14
2023-04-26T05:02:03.593Z,5.21
2023-04-26T05:07:09.839Z,5.27
2023-04-26T05:12:13.264Z,5.41
2023-04-26T05:17:16.789Z,5.52
2023-04-26T05:22:22.131Z,5.63
2023-04-26T05:27:25.542Z,5.78
2023-04-26T05:32:29.090Z,5.89
2023-04-26T05:37:32.786Z,6.10
2023-04-26T05:42:37.337Z,6.37
2023-04-26T05:47:40.983Z,6.58
2023-04-26T05:52:44.670Z,6.62
2023-04-26T05:57:48.148Z,6.48
2023-04-26T06:02:52.107Z,6.49
2023-04-26T06:07:56.222Z,6.47
2023-04-26T06:12:59.833Z,6.41
2023-04-26T06:18:04.963Z,6.41
2023-04-26T06:23:08.510Z,6.57
2023-04-26T06:28:14.919Z,6.77
2023-04-26T06:33:18.510Z,7.16
2023-04-26T06:38:22.035Z,7.49
2023-04-26T06:43:25.544Z,7.66
2023-04-26T06:48:29.057Z,7.78
2023-04-26T06:53:32.581Z,8.00
2023-04-26T06:58:36.650Z,8.05
2023-04-26T07:03:42.931Z,8.30
2023-04-26T07:08:46.502Z,8.56
2023-04-26T07:13:50.111Z,8.57
2023-04-26T07:18:53.837Z,8.60
2023-04-26T07:23:58.380Z,8.76
2023-04-26T07:29:01.905Z,9.14
2023-04-26T07:34:05.410Z,9.40
2023-04-26T07:39:11.013Z,9.64
2023-04-26T07:44:14.493Z,9.56
2023-04-26T07:49:18.111Z,9.71
2023-04-26T07:54:21.838Z,10.03
2023-04-26T07:59:25.383Z,9.97
2023-04-26T08:04:36.986Z,10.10
2023-04-26T08:09:40.667Z,10.19
2023-04-26T08:14:44.304Z,10.13
2023-04-26T08:19:47.799Z,9.91
2023-04-26T08:24:54.884Z,10.13
2023-04-26T08:29:58.331Z,10.35
2023-04-26T08:35:01.934Z,9.98
2023-04-26T08:40:10.196Z,9.69
2023-04-26T08:45:16.639Z,9.46
2023-04-26T08:50:22.368Z,9.34
2023-04-26T08:55:27.105Z,9.35
2023-04-26T09:00:31.626Z,9.62
2023-04-26T09:05:35.722Z,9.69
2023-04-26T09:10:39.241Z,9.71
2023-04-26T09:15:42.909Z,9.86
2023-04-26T09:20:47.888Z,10.16
2023-04-26T09:25:51.310Z,10.23
2023-04-26T09:30:55.685Z,10.35
2023-04-26T09:36:12.655Z,10.48
2023-04-26T09:41:16.224Z,10.92
2023-04-26T09:46:24.943Z,10.85
2023-04-26T09:51:29.142Z,10.47
2023-04-26T09:56:32.510Z,10.22
2023-04-26T10:01:36.958Z,10.15
2023-04-26T10:06:40.334Z,10.48
2023-04-26T10:11:43.825Z,10.80
2023-04-26T10:16:48.319Z,10.76
2023-04-26T10:21:53.813Z,10.56
2023-04-26T10:26:57.893Z,10.60
2023-04-26T10:32:02.076Z,10.58
2023-04-26T10:37:13.993Z,10.27
2023-04-26T10:42:25.429Z,10.22
2023-04-26T10:47:34.299Z,10.29
2023-04-26T10:52:58.053Z,10.62
2023-04-26T10:58:01.666Z,10.68
2023-04-26T11:03:12.061Z,10.26
2023-04-26T11:08:21.401Z,10.06
2023-04-26T11:13:25.016Z,10.21
2023-04-26T11:18:29.458Z,10.56
2023-04-26T11:23:33.794Z,10.75
2023-04-26T11:28:39.221Z,10.62
2023-04-26T11:33:42.562Z,10.55
2023-04-26T11:38:45.972Z,10.33
2023-04-26T11:43:49.412Z,10.11
2023-04-26T11:48:54.057Z,10.13
2023-04-26T11:54:02.044Z,10.83
2023-04-26T11:59:05.663Z,11.62
2023-04-26T12:04:10.830Z,12.08
2023-04-26T12:09:14.445Z,11.95
2023-04-26T12:14:18.057Z,11.52
2023-04-26T12:19:24.335Z,11.12
2023-04-26T12:24:30.690Z,10.57
2023-04-26T12:29:34.673Z,10.02
2023-04-26T12:34:38.268Z,9.52
2023-04-26T12:39:41.881Z,9.25
2023-04-26T12:44:45.194Z,9.39
2023-04-26T12:49:48.623Z,9.81
2023-04-26T12:54:52.125Z,10.43
2023-04-26T12:59:56.869Z,11.11
2023-04-26T13:05:04.775Z,12.01
2023-04-26T13:10:12.672Z,12.65
2023-04-26T13:15:17.738Z,12.58
2023-04-26T13:20:22.346Z,12.63
2023-04-26T13:25:27.449Z,12.40
2023-04-26T13:30:31.183Z,12.11
2023-04-26T13:35:34.691Z,12.07
2023-04-26T13:40:38.326Z,11.72
2023-04-26T13:45:43.259Z,11.33
2023-04-26T13:50:46.672Z,11.00
2023-04-26T13:55:50.184Z,10.95
2023-04-26T14:00:53.747Z,11.07
2023-04-26T14:05:57.224Z,10.81
2023-04-26T14:11:00.820Z,10.28
2023-04-26T14:16:04.868Z,9.72
2023-04-26T14:21:08.163Z,9.09
2023-04-26T14:26:12.203Z,8.84
2023-04-26T14:31:18.088Z,8.80
2023-04-26T14:36:21.505Z,9.03
2023-04-26T14:41:24.990Z,9.50
2023-04-26T14:46:30.888Z,9.92
2023-04-26T14:51:34.377Z,10.06
2023-04-26T14:56:37.887Z,9.86
2023-04-26T15:01:41.897Z,9.50
2023-04-26T15:06:45.337Z,9.28
2023-04-26T15:11:48.880Z,9.19
2023-04-26T15:16:52.308Z,9.43
2023-04-26T15:21:56.080Z,10.41
2023-04-26T15:26:59.526Z,17.78
2023-04-26T15:32:04.307Z,20.10
2023-04-26T15:37:07.738Z,23.09
2023-04-26T15:42:11.530Z,26.88
2023-04-26T15:47:14.900Z,27.24
2023-04-26T15:52:18.457Z,23.33
2023-04-26T15:57:22.124Z,25.58
2023-04-26T16:02:25.916Z,26.30
2023-04-26T16:07:29.665Z,27.36
2023-04-26T16:12:33.182Z,23.15
2023-04-26T16:17:38.503Z,18.75
2023-04-26T16:22:43.964Z,16.31
2023-04-26T16:27:49.367Z,17.25
2023-04-26T16:32:52.728Z,19.37
2023-04-26T16:37:56.335Z,21.91
2023-04-26T16:43:00.013Z,21.10
2023-04-26T16:49:29.253Z,18.74
2023-04-26T16:56:05.389Z,19.84
2023-04-26T17:01:08.763Z,20.89
2023-04-26T17:06:12.309Z,21.69
2023-04-26T17:11:17.100Z,21.97
2023-04-26T17:16:20.402Z,21.80
2023-04-26T17:21:24.027Z,21.14
2023-04-26T17:26:28.054Z,20.59
2023-04-26T17:31:31.462Z,19.34
2023-04-26T17:36:35.080Z,17.96
2023-04-26T17:41:38.807Z,16.40
2023-04-26T17:46:42.077Z,14.85
2023-04-26T17:51:45.530Z,13.49
2023-04-26T17:56:48.939Z,12.17
2023-04-26T18:01:53.821Z,10.84
2023-04-26T18:06:57.144Z,9.69
2023-04-26T18:12:02.903Z,8.90
2023-04-26T18:17:06.428Z,8.29
2023-04-26T18:22:11.943Z,7.85
2023-04-26T18:27:15.355Z,7.48
2023-04-26T18:32:18.801Z,7.13
2023-04-26T18:37:22.387Z,6.90
2023-04-26T18:42:27.335Z,6.71
2023-04-26T18:47:31.299Z,6.52
2023-04-26T18:52:35.797Z,6.33
2023-04-26T18:57:39.007Z,6.16
2023-04-26T19:02:42.918Z,5.99
2023-04-26T19:07:46.962Z,5.82
2023-04-26T19:12:50.652Z,5.69
2023-04-26T19:17:54.181Z,5.56
2023-04-26T19:22:57.611Z,5.42
2023-04-26T19:28:01.130Z,5.31
2023-04-26T19:33:04.676Z,5.20
2023-04-26T19:38:08.366Z,5.12
2023-04-26T19:43:11.882Z,5.10
2023-04-26T19:48:15.618Z,5.01
2023-04-26T19:53:19.018Z,4.90
2023-04-26T19:58:22.692Z,4.80
2023-04-26T20:03:26.348Z,4.78
2023-04-26T20:08:31.389Z,4.75
2023-04-26T20:13:35.227Z,4.66
2023-04-26T20:18:38.841Z,4.61
2023-04-26T20:23:42.968Z,4.59
2023-04-26T20:28:47.818Z,4.54
2023-04-26T20:33:51.640Z,4.45
2023-04-26T20:38:55.053Z,4.39
2023-04-26T20:43:58.775Z,4.31
2023-04-26T20:49:02.902Z,4.24
2023-04-26T20:54:06.315Z,4.14
2023-04-26T20:59:09.962Z,4.02
2023-04-26T21:04:13.998Z,3.97
2023-04-26T21:09:17.684Z,3.92
2023-04-26T21:14:21.309Z,3.84
2023-04-26T21:19:24.937Z,3.76
2023-04-26T21:24:28.557Z,3.62
2023-04-26T21:29:32.482Z,3.55
2023-04-26T21:34:37.633Z,3.44
2023-04-26T21:39:41.142Z,3.31
2023-04-26T21:44:44.751Z,3.18
2023-04-26T21:49:48.278Z,3.11
2023-04-26T21:54:52.865Z,2.96
2023-04-26T21:59:57.040Z,2.81
2023-04-26T22:05:00.668Z,2.73
2023-04-26T22:10:04.393Z,2.71
2023-04-26T22:15:08.253Z,2.66
2023-04-26T22:20:12.340Z,2.58
2023-04-26T22:25:15.749Z,2.47
2023-04-26T22:30:24.542Z,2.33
2023-04-26T22:35:30.208Z,2.25
2023-04-26T22:40:34.092Z,2.12
2023-04-26T22:45:37.329Z,2.00
2023-04-26T22:50:40.805Z,1.93
2023-04-26T22:55:44.418Z,1.86
2023-04-26T23:00:47.733Z,1.81
2023-04-26T23:05:51.254Z,1.82
2023-04-26T23:10:54.655Z,1.93
2023-04-26T23:15:58.080Z,2.04
2023-04-26T23:21:01.694Z,2.07
2023-04-26T23:26:08.231Z,2.09
2023-04-26T23:31:11.936Z,2.12
2023-04-26T23:36:15.517Z,2.19
2023-04-26T23:41:18.929Z,2.27
2023-04-26T23:46:22.384Z,2.32
2023-04-26T23:51:26.821Z,2.41
2023-04-26T23:56:30.401Z,2.47
